createdAt,value
2019-01-16T00:01:49.325Z,5.07
2019-01-16T00:04:28.307Z,3.30
2019-01-16T00:07:06.034Z,4.23
2019-01-16T00:09:56.172Z,7.53
2019-01-16T00:12:46.372Z,3.47
2019-01-16T00:15:31.872Z,3.20
2019-01-16T00:18:23.049Z,6.50
2019-01-16T00:21:02.515Z,3.77
2019-01-16T00:23:48.518Z,5.83
2019-01-16T00:26:38.923Z,5.30
2019-01-16T00:29:35.131Z,4.97
2019-01-16T00:32:24.190Z,3.63
2019-01-16T00:35:11.594Z,6.50
2019-01-16T00:38:04.341Z,6.03
2019-01-16T00:41:06.784Z,5.57
2019-01-16T00:43:59.962Z,3.13
2019-01-16T00:46:47.472Z,3.03
2019-01-16T00:49:43.933Z,4.97
2019-01-16T00:52:31.333Z,5.23
2019-01-16T00:55:21.423Z,4.87
2019-01-16T00:58:08.850Z,4.00
2019-01-16T01:00:54.806Z,5.13
2019-01-16T01:03:42.228Z,7.50
2019-01-16T01:06:28.324Z,4.77
2019-01-16T01:09:11.593Z,4.80
2019-01-16T01:12:13.957Z,4.47
2019-01-16T01:15:01.337Z,5.77
2019-01-16T01:17:38.453Z,4.07
2019-01-16T01:20:38.567Z,4.83
2019-01-16T01:23:34.950Z,5.10
2019-01-16T01:26:29.696Z,2.03
2019-01-16T01:29:35.445Z,3.90
2019-01-16T01:32:21.750Z,4.17
2019-01-16T01:35:11.475Z,3.10
2019-01-16T01:38:16.919Z,4.83
2019-01-16T01:41:09.940Z,5.23
2019-01-16T01:43:58.824Z,5.97
2019-01-16T01:46:44.812Z,5.07
2019-01-16T01:49:47.542Z,8.20
2019-01-16T01:52:34.710Z,2.97
2019-01-16T01:55:25.117Z,2.80
2019-01-16T01:58:03.640Z,4.53
2019-01-16T02:00:42.708Z,3.70
2019-01-16T02:03:39.107Z,4.17
2019-01-16T02:06:27.773Z,4.87
2019-01-16T02:09:14.195Z,3.23
2019-01-16T02:12:16.952Z,2.93
2019-01-16T02:15:07.105Z,6.97
2019-01-16T02:18:00.321Z,3.87
2019-01-16T02:20:50.452Z,4.90
2019-01-16T02:23:35.632Z,3.27
2019-01-16T02:26:22.050Z,5.17
2019-01-16T02:29:18.554Z,3.53
2019-01-16T02:32:04.733Z,3.90
2019-01-16T02:34:50.353Z,3.90
2019-01-16T02:37:35.319Z,4.63
2019-01-16T02:40:40.727Z,3.20
2019-01-16T02:43:31.087Z,2.93
2019-01-16T02:46:21.507Z,5.20
2019-01-16T02:48:56.251Z,3.10
2019-01-16T02:51:39.121Z,5.23
2019-01-16T02:54:16.562Z,5.30
2019-01-16T02:56:58.685Z,2.90
2019-01-16T02:59:33.905Z,4.47
2019-01-16T03:02:17.163Z,3.63
2019-01-16T03:05:03.051Z,4.33
2019-01-16T03:07:53.951Z,4.87
2019-01-16T03:10:44.489Z,6.17
2019-01-16T03:13:30.426Z,4.53
2019-01-16T03:16:20.329Z,8.17
2019-01-16T03:19:16.573Z,6.00
2019-01-16T03:22:03.977Z,2.50
2019-01-16T03:25:06.464Z,4.50
2019-01-16T03:27:59.940Z,4.57
2019-01-16T03:30:50.226Z,5.27
2019-01-16T03:33:49.664Z,4.53
2019-01-16T03:36:29.787Z,3.07
2019-01-16T03:39:06.294Z,3.50
2019-01-16T03:41:53.679Z,4.43
2019-01-16T03:44:48.486Z,5.90
2019-01-16T03:47:38.866Z,3.80
2019-01-16T03:50:26.657Z,5.70
2019-01-16T03:53:20.102Z,6.77
2019-01-16T03:56:07.464Z,3.70
2019-01-16T03:58:53.357Z,4.07
2019-01-16T04:01:46.690Z,4.70
2019-01-16T04:04:37.075Z,8.47
2019-01-16T04:07:33.590Z,4.20
2019-01-16T04:10:39.309Z,5.17
2019-01-16T04:13:23.118Z,3.40
2019-01-16T04:16:11.947Z,7.37
2019-01-16T04:18:57.938Z,5.07
2019-01-16T04:21:43.132Z,6.37
2019-01-16T04:24:45.947Z,5.30
2019-01-16T04:27:36.159Z,5.33
2019-01-16T04:30:25.990Z,6.33
2019-01-16T04:33:17.604Z,5.10
2019-01-16T04:36:03.652Z,3.30
2019-01-16T04:38:48.025Z,6.67
2019-01-16T04:41:40.919Z,6.40
2019-01-16T04:44:28.287Z,3.93
2019-01-16T04:47:17.619Z,2.30
2019-01-16T04:50:01.128Z,6.07
2019-01-16T04:53:00.559Z,6.23
2019-01-16T04:55:47.950Z,3.60
2019-01-16T04:58:41.158Z,3.83
2019-01-16T05:01:28.557Z,10.60
2019-01-16T05:04:24.882Z,5.17
2019-01-16T05:07:30.584Z,5.70
2019-01-16T05:10:17.998Z,7.63
2019-01-16T05:13:14.412Z,8.63
2019-01-16T05:16:01.822Z,6.53
2019-01-16T05:19:04.538Z,5.33
2019-01-16T05:21:50.516Z,6.00
2019-01-16T05:24:36.233Z,3.27
2019-01-16T05:27:32.928Z,6.73
2019-01-16T05:30:23.042Z,5.30
2019-01-16T05:33:16.417Z,6.50
2019-01-16T05:36:06.274Z,8.13
2019-01-16T05:38:53.741Z,5.57
2019-01-16T05:41:43.830Z,5.60
2019-01-16T05:44:29.796Z,4.23
2019-01-16T05:47:11.034Z,5.40
2019-01-16T05:49:56.760Z,3.80
2019-01-16T05:52:41.798Z,2.47
2019-01-16T05:55:41.214Z,7.87
2019-01-16T05:58:46.947Z,4.10
2019-01-16T06:01:31.697Z,2.80
2019-01-16T06:04:17.693Z,5.07
2019-01-16T06:07:03.427Z,5.77
2019-01-16T06:09:49.872Z,8.83
2019-01-16T06:12:28.551Z,5.27
2019-01-16T06:15:34.258Z,5.10
2019-01-16T06:18:20.803Z,4.57
2019-01-16T06:21:08.186Z,7.13
2019-01-16T06:24:10.549Z,4.50
2019-01-16T06:26:56.478Z,6.87
2019-01-16T06:29:52.415Z,5.90
2019-01-16T06:32:29.275Z,7.50
2019-01-16T06:35:15.031Z,5.93
2019-01-16T06:38:28.984Z,5.73
2019-01-16T06:41:18.906Z,9.00
2019-01-16T06:44:04.803Z,4.40
2019-01-16T06:46:50.377Z,5.83
2019-01-16T06:49:40.554Z,5.50
2019-01-16T06:52:29.251Z,4.47
2019-01-16T06:55:16.677Z,6.53
2019-01-16T06:58:02.725Z,9.03
2019-01-16T07:00:46.204Z,5.87
2019-01-16T07:03:39.138Z,3.87
2019-01-16T07:06:20.433Z,9.67
2019-01-16T07:09:01.759Z,7.53
2019-01-16T07:11:40.431Z,6.37
2019-01-16T07:14:20.371Z,5.13
2019-01-16T07:17:27.202Z,7.40
2019-01-16T07:20:12.110Z,8.50
2019-01-16T07:23:02.025Z,9.80
2019-01-16T07:25:52.485Z,10.50
2019-01-16T07:28:58.013Z,9.97
2019-01-16T07:32:03.553Z,5.93
2019-01-16T07:34:53.268Z,5.80
2019-01-16T07:37:39.175Z,6.33
2019-01-16T07:40:26.879Z,7.13
2019-01-16T07:43:05.526Z,8.80
2019-01-16T07:45:50.559Z,6.80
2019-01-16T07:48:43.728Z,5.10
2019-01-16T07:51:33.885Z,5.77
2019-01-16T07:54:33.164Z,6.93
2019-01-16T07:57:29.084Z,6.67
2019-01-16T08:00:15.537Z,7.17
2019-01-16T08:03:05.918Z,7.07
2019-01-16T08:05:54.715Z,11.47
2019-01-16T08:09:00.290Z,8.50
2019-01-16T08:11:48.185Z,8.10
2019-01-16T08:14:44.644Z,5.83
2019-01-16T08:17:34.882Z,7.27
2019-01-16T08:20:30.482Z,8.33
2019-01-16T08:23:20.436Z,6.60
2019-01-16T08:26:07.790Z,7.53
2019-01-16T08:28:54.238Z,19.00
2019-01-16T08:31:40.724Z,4.67
2019-01-16T08:34:30.875Z,7.97
2019-01-16T08:37:10.010Z,5.43
2019-01-16T08:39:56.290Z,6.03
2019-01-16T08:42:55.974Z,6.07
2019-01-16T08:45:41.944Z,8.73
2019-01-16T08:48:25.455Z,6.77
2019-01-16T08:51:25.168Z,6.90
2019-01-16T08:54:30.814Z,5.90
2019-01-16T08:57:33.995Z,7.10
2019-01-16T09:00:20.389Z,6.27
2019-01-16T09:03:06.326Z,8.03
2019-01-16T09:05:52.578Z,4.23
2019-01-16T09:08:52.238Z,6.73
2019-01-16T09:11:43.082Z,6.83
2019-01-16T09:14:21.355Z,10.10
2019-01-16T09:17:04.549Z,7.17
2019-01-16T09:19:38.540Z,5.20
2019-01-16T09:22:24.566Z,7.40
2019-01-16T09:25:10.376Z,4.13
2019-01-16T09:28:04.219Z,6.53
2019-01-16T09:30:54.423Z,8.23
2019-01-16T09:33:48.704Z,7.00
2019-01-16T09:36:34.310Z,8.87
2019-01-16T09:39:20.326Z,6.50
2019-01-16T09:42:10.704Z,7.67
2019-01-16T09:45:04.312Z,9.77
2019-01-16T09:47:47.656Z,10.23
2019-01-16T09:50:27.549Z,5.50
2019-01-16T09:53:17.468Z,7.43
2019-01-16T09:56:07.608Z,9.87
2019-01-16T09:59:06.770Z,6.97
2019-01-16T10:02:00.409Z,15.47
2019-01-16T10:04:40.519Z,13.07
2019-01-16T10:07:30.889Z,14.87
2019-01-16T10:10:16.889Z,8.53
2019-01-16T10:13:13.563Z,5.47
2019-01-16T10:16:01.826Z,9.77
2019-01-16T10:19:00.255Z,7.40
2019-01-16T10:21:45.945Z,7.07
2019-01-16T10:24:45.104Z,8.50
2019-01-16T10:27:35.225Z,7.33
2019-01-16T10:30:24.188Z,6.27
2019-01-16T10:33:23.130Z,5.63
2019-01-16T10:36:16.351Z,5.23
2019-01-16T10:39:03.694Z,5.33
2019-01-16T10:41:51.100Z,12.67
2019-01-16T10:44:34.351Z,24.17
2019-01-16T10:47:31.256Z,11.37
2019-01-16T10:50:17.336Z,13.00
2019-01-16T10:53:10.765Z,6.77
2019-01-16T10:55:57.961Z,5.33
2019-01-16T10:58:54.416Z,7.27
2019-01-16T11:01:40.368Z,7.33
2019-01-16T11:04:27.786Z,9.27
2019-01-16T11:07:09.521Z,8.27
2019-01-16T11:09:51.907Z,10.03
2019-01-16T11:12:39.332Z,10.43
2019-01-16T11:15:24.965Z,9.20
2019-01-16T11:18:11.159Z,4.80
2019-01-16T11:20:57.395Z,5.87
2019-01-16T11:23:48.781Z,7.67
2019-01-16T11:26:27.450Z,8.77
2019-01-16T11:29:20.334Z,4.63
2019-01-16T11:32:16.990Z,2.80
2019-01-16T11:35:19.465Z,6.10
2019-01-16T11:38:15.039Z,8.43
2019-01-16T11:41:09.257Z,6.97
2019-01-16T11:43:54.518Z,3.57
2019-01-16T11:46:32.106Z,3.77
2019-01-16T11:49:25.560Z,6.00
2019-01-16T11:52:18.175Z,5.53
2019-01-16T11:55:23.931Z,6.70
2019-01-16T11:58:09.812Z,6.13
2019-01-16T12:00:57.205Z,8.07
2019-01-16T12:04:00.247Z,5.90
2019-01-16T12:06:46.336Z,5.30
2019-01-16T12:09:41.599Z,6.87
2019-01-16T12:12:27.519Z,10.23
2019-01-16T12:15:20.577Z,7.17
2019-01-16T12:18:44.768Z,9.93
2019-01-16T12:21:41.009Z,10.67
2019-01-16T12:24:22.734Z,9.53
2019-01-16T12:27:32.472Z,6.30
2019-01-16T12:30:16.648Z,8.83
2019-01-16T12:32:53.138Z,6.20
2019-01-16T12:35:49.473Z,5.97
2019-01-16T12:38:43.116Z,9.90
2019-01-16T12:41:29.381Z,7.63
2019-01-16T12:44:17.883Z,7.30
2019-01-16T12:47:11.788Z,9.60
2019-01-16T12:49:59.600Z,4.33
2019-01-16T12:52:35.832Z,8.87
2019-01-16T12:55:43.022Z,7.20
2019-01-16T12:58:30.463Z,12.50
2019-01-16T13:01:08.299Z,9.47
2019-01-16T13:03:43.814Z,6.40
2019-01-16T13:06:34.173Z,5.93
2019-01-16T13:09:21.752Z,7.13
2019-01-16T13:12:04.340Z,8.10
2019-01-16T13:15:01.171Z,8.90
2019-01-16T13:17:52.458Z,8.13
2019-01-16T13:20:52.660Z,12.97
2019-01-16T13:23:49.031Z,3.83
2019-01-16T13:26:35.086Z,5.93
2019-01-16T13:29:37.880Z,7.20
2019-01-16T13:32:18.528Z,6.43
2019-01-16T13:35:04.493Z,10.27
2019-01-16T13:37:50.884Z,4.63
2019-01-16T13:40:30.658Z,6.07
2019-01-16T13:43:10.893Z,7.33
2019-01-16T13:45:58.332Z,5.67
2019-01-16T13:48:53.054Z,4.43
2019-01-16T13:51:46.122Z,10.63
2019-01-16T13:54:33.028Z,5.23
2019-01-16T13:57:35.492Z,7.10
2019-01-16T14:00:19.739Z,10.03
2019-01-16T14:03:05.680Z,6.33
2019-01-16T14:05:52.143Z,6.37
2019-01-16T14:08:48.835Z,6.73
2019-01-16T14:11:24.021Z,8.57
2019-01-16T14:14:29.684Z,5.80
2019-01-16T14:17:29.327Z,9.83
2019-01-16T14:20:10.377Z,11.40
2019-01-16T14:22:56.267Z,7.07
2019-01-16T14:26:02.006Z,10.90
2019-01-16T14:28:47.290Z,10.50
2019-01-16T14:31:37.925Z,11.63
2019-01-16T14:34:18.801Z,12.90
2019-01-16T14:40:12.845Z,6.67
2019-01-16T14:43:00.996Z,9.37
2019-01-16T14:45:46.989Z,5.53
2019-01-16T14:48:45.114Z,5.47
2019-01-16T14:51:35.721Z,7.93
2019-01-16T14:54:25.228Z,8.23
2019-01-16T14:57:33.219Z,6.07
2019-01-16T15:00:20.022Z,8.10
2019-01-16T15:03:07.088Z,9.03
2019-01-16T15:05:53.315Z,10.53
2019-01-16T15:08:35.131Z,9.10
2019-01-16T15:11:26.984Z,11.70
2019-01-16T15:14:20.429Z,8.53
2019-01-16T15:17:21.195Z,10.03
2019-01-16T15:20:20.395Z,13.83
2019-01-16T15:23:06.648Z,14.73
2019-01-16T15:25:54.046Z,11.60
2019-01-16T15:28:47.755Z,9.10
2019-01-16T15:31:33.193Z,9.70
2019-01-16T15:34:24.707Z,13.50
2019-01-16T15:37:08.981Z,12.90
2019-01-16T15:40:10.135Z,14.60
2019-01-16T15:43:27.025Z,23.67
2019-01-16T15:46:22.544Z,14.07
2019-01-16T15:49:27.307Z,16.37
2019-01-16T15:52:28.301Z,18.30
2019-01-16T15:55:15.909Z,12.77
2019-01-16T15:58:25.029Z,9.90
2019-01-16T16:01:14.457Z,13.80
2019-01-16T16:04:11.856Z,13.17
2019-01-16T16:07:21.892Z,16.33
2019-01-16T16:10:12.017Z,27.87
2019-01-16T16:12:51.827Z,28.53
2019-01-16T16:16:25.900Z,35.33
2019-01-16T16:24:11.088Z,26.33
2019-01-16T16:32:09.235Z,18.17
2019-01-16T16:35:11.442Z,14.47
2019-01-16T16:37:57.482Z,15.10
2019-01-16T16:40:44.859Z,14.00
2019-01-16T16:43:35.204Z,15.87
2019-01-16T16:46:21.251Z,9.70
2019-01-16T16:49:11.301Z,8.13
2019-01-16T16:52:12.256Z,19.47
2019-01-16T16:55:15.409Z,12.70
2019-01-16T16:58:04.264Z,10.27
2019-01-16T17:00:50.909Z,9.20
2019-01-16T17:03:42.623Z,12.13
2019-01-16T17:06:30.052Z,11.57
2019-01-16T17:09:16.549Z,11.77
2019-01-16T17:12:08.725Z,14.00
2019-01-16T17:14:55.184Z,14.33
2019-01-16T17:17:45.710Z,17.27
2019-01-16T17:20:34.223Z,15.57
2019-01-16T17:23:25.230Z,8.43
2019-01-16T17:26:02.094Z,20.40
2019-01-16T17:28:52.693Z,9.23
2019-01-16T17:31:38.965Z,9.37
2019-01-16T17:34:17.050Z,13.17
2019-01-16T17:37:15.645Z,11.70
2019-01-16T17:40:09.374Z,23.83
2019-01-16T17:43:12.321Z,13.43
2019-01-16T17:45:58.647Z,23.53
2019-01-16T17:48:50.413Z,25.33
2019-01-16T17:51:39.982Z,31.50
2019-01-16T17:54:46.242Z,32.57
2019-01-16T17:57:27.642Z,44.73
2019-01-16T18:00:15.305Z,30.63
2019-01-16T18:03:10.225Z,29.07
2019-01-16T18:05:56.688Z,25.37
2019-01-16T18:08:38.685Z,16.97
2019-01-16T18:11:19.401Z,22.77
2019-01-16T18:14:21.974Z,14.20
2019-01-16T18:17:12.496Z,16.17
2019-01-16T18:20:12.360Z,14.23
2019-01-16T18:23:00.871Z,8.77
2019-01-16T18:25:57.189Z,14.73
2019-01-16T18:28:47.889Z,14.30
2019-01-16T18:31:45.644Z,16.27
2019-01-16T18:34:36.277Z,15.73
2019-01-16T18:37:36.623Z,17.03
2019-01-16T18:40:16.613Z,12.00
2019-01-16T18:43:47.200Z,17.67
2019-01-16T18:46:44.126Z,15.90
2019-01-16T18:49:33.375Z,94.53
2019-01-16T18:52:29.444Z,104.40
2019-01-16T18:55:15.381Z,70.93
2019-01-16T18:58:09.569Z,67.13
2019-01-16T19:01:04.067Z,63.10
2019-01-16T19:04:09.971Z,44.30
2019-01-16T19:06:56.929Z,32.80
2019-01-16T19:09:57.406Z,33.33
2019-01-16T19:12:47.303Z,29.03
2019-01-16T19:15:39.936Z,28.10
2019-01-16T19:18:37.718Z,29.57
2019-01-16T19:21:36.028Z,33.13
2019-01-16T19:24:32.949Z,32.90
2019-01-16T19:27:41.999Z,34.77
2019-01-16T19:30:37.308Z,37.07
2019-01-16T19:33:13.094Z,36.90
2019-01-16T19:35:51.075Z,27.97
2019-01-16T19:38:44.929Z,26.20
2019-01-16T19:41:47.482Z,31.30
2019-01-16T19:44:27.490Z,31.30
2019-01-16T19:47:13.521Z,34.87
2019-01-16T19:49:59.773Z,36.87
2019-01-16T19:53:04.693Z,35.13
2019-01-16T19:56:00.780Z,41.83
2019-01-16T19:58:39.283Z,40.37
2019-01-16T20:01:35.676Z,45.43
2019-01-16T20:04:26.657Z,38.07
2019-01-16T20:07:19.252Z,35.37
2019-01-16T20:10:05.319Z,32.93
2019-01-16T20:12:55.792Z,74.60
2019-01-16T20:15:43.280Z,94.70
2019-01-16T20:18:37.859Z,87.13
2019-01-16T20:21:31.620Z,60.83
2019-01-16T20:24:17.570Z,47.17
2019-01-16T20:27:17.146Z,80.70
2019-01-16T20:30:11.812Z,41.67
2019-01-16T20:33:11.241Z,35.70
2019-01-16T20:36:01.227Z,39.63
2019-01-16T20:38:47.687Z,37.80
2019-01-16T20:41:57.630Z,50.43
2019-01-16T20:44:38.841Z,38.47
2019-01-16T20:47:57.846Z,41.50
2019-01-16T20:50:43.768Z,36.90
2019-01-16T20:53:30.033Z,31.37
2019-01-16T20:56:20.600Z,33.97
2019-01-16T20:59:44.658Z,34.53
2019-01-16T21:02:44.108Z,34.53
2019-01-16T21:05:30.099Z,24.17
2019-01-16T21:08:11.487Z,21.27
2019-01-16T21:10:53.394Z,27.57
2019-01-16T21:13:52.276Z,24.37
2019-01-16T21:16:44.239Z,16.80
2019-01-16T21:19:50.105Z,25.60
2019-01-16T21:22:27.199Z,36.80
2019-01-16T21:25:16.358Z,24.87
2019-01-16T21:28:08.720Z,25.60
2019-01-16T21:30:56.168Z,25.03
2019-01-16T21:33:49.588Z,35.53
2019-01-16T21:36:42.651Z,18.83
2019-01-16T21:39:35.803Z,23.10
2019-01-16T21:42:29.154Z,27.87
2019-01-16T21:45:06.901Z,28.13
2019-01-16T21:48:29.129Z,21.93
2019-01-16T21:51:25.754Z,29.30
2019-01-16T21:54:18.970Z,22.93
2019-01-16T21:57:24.042Z,24.30
2019-01-16T22:00:20.279Z,27.10
2019-01-16T22:03:06.353Z,56.20
2019-01-16T22:05:53.786Z,91.57
2019-01-16T22:08:30.818Z,63.40
2019-01-16T22:11:16.961Z,61.20
2019-01-16T22:14:16.750Z,52.60
2019-01-16T22:17:07.544Z,39.70
2019-01-16T22:19:53.558Z,39.87
2019-01-16T22:22:49.885Z,41.23
2019-01-16T22:25:41.209Z,32.83
2019-01-16T22:28:32.358Z,33.23
2019-01-16T22:31:13.375Z,30.17
2019-01-16T22:34:08.272Z,25.13
2019-01-16T22:37:03.259Z,34.47
2019-01-16T22:39:59.380Z,39.03
2019-01-16T22:42:44.778Z,26.73
2019-01-16T22:45:30.823Z,25.03
2019-01-16T22:48:24.924Z,26.50
2019-01-16T22:51:02.407Z,29.87
2019-01-16T22:53:52.889Z,44.30
2019-01-16T22:56:58.153Z,40.90
2019-01-16T22:59:48.380Z,27.07
2019-01-16T23:02:34.542Z,25.10
2019-01-16T23:05:21.993Z,28.87
2019-01-16T23:08:44.061Z,27.60
2019-01-16T23:11:30.919Z,25.00
2019-01-16T23:14:21.228Z,29.00
2019-01-16T23:17:14.619Z,26.70
2019-01-16T23:19:56.886Z,30.70
2019-01-16T23:22:42.900Z,30.60
2019-01-16T23:25:29.253Z,30.53
2019-01-16T23:28:18.395Z,20.17
2019-01-16T23:31:11.328Z,15.00
2019-01-16T23:34:04.792Z,21.70
2019-01-16T23:37:01.254Z,23.33
2019-01-16T23:39:51.673Z,23.03
2019-01-16T23:42:39.052Z,30.27
2019-01-16T23:45:23.383Z,15.97
2019-01-16T23:48:27.626Z,18.30
2019-01-16T23:51:13.690Z,13.23
2019-01-16T23:54:01.111Z,12.90
2019-01-16T23:56:47.088Z,12.07
2019-01-16T23:59:35.844Z,12.80
